Terminal Aerodrome Forecast
Issued by NWS Sioux Falls, SD

Home | Current Version | Previous Version | Graphics & Text | Print | Product List | Glossary On
Versions: 1 2 3 4 5 6 7 8 9 10 11 12 13 14 15 16 17 18 19 20 21 22 23 24 25 26 27 28 29 30 31 32 33
416
FTUS43 KFSD 110524
TAFSUX
TAF
KSUX 110524Z 1106/1206 08008KT P6SM SCT025 OVC040
     FM110900 06006KT P6SM BKN025
     FM111800 14004KT P6SM -SN OVC015
     FM112000 17010KT 2SM -SN BR OVC012
     FM112300 10007KT P6SM OVC015
     FM120300 33005KT P6SM OVC025=

USA.gov is the U.S. government's official web portal to all federal, state and local government web resources and services.